Sc Hercules — VRQP7 — position and weather

sailwx.info

Track history (hours):
 
Tides and Currents Weather Stations Pressure Air Temp Water Temp Dewpoint Dewpoint Depression Visibility Wind Speed Wind Dir Waves Ship Positions

Sc Hercules

Last reported at 2018-Jul-13 18:40 UTC. Time now 2018-Jul-19 09:51 UTC.
Position N 01°26' E 103°12'.

Length 183 m; draft 9.5 m.

Type: Tanker. MMSI: 477002100.

Date/timePositionNaut miles runAvg speedWind from/ knotsBaromVisibWave heightAir tempDewpointWater temp
2018-Jul-13 18:40N 01°26' E 103°12'613.5
2018-Jul-13 18:15N 01°22' E 103°16'413.3
2018-Jul-13 17:56N 01°19' E 103°20'512.7
2018-Jul-13 17:31N 01°16' E 103°24'611.9
2018-Jul-13 16:59N 01°14' E 103°29'511.2
2018-Jul-13 16:30N 01°12' E 103°35'510.6
2018-Jul-13 15:59N 01°11' E 103°40'1 2.8
2018-Jul-13 15:29N 01°12' E 103°41'0 0.0
2018-Jul-13 14:59N 01°12' E 103°41'0 0.1
2018-Jul-13 13:59N 01°12' E 103°41'0 0.1
2018-Jul-13 13:29N 01°12' E 103°41'0 0.0
2018-Jul-13 12:59N 01°12' E 103°41'0 0.0
2018-Jul-13 12:29N 01°12' E 103°41'0 0.0
2018-Jul-13 11:59N 01°12' E 103°41'0 0.0
2018-Jul-13 11:29N 01°12' E 103°41'0 0.0
2018-Jul-13 10:59N 01°12' E 103°41'0 0.0
2018-Jul-13 10:29N 01°12' E 103°41'0 0.0
2018-Jul-13 09:59N 01°12' E 103°41'0 0.0
2018-Jul-13 09:29N 01°12' E 103°41'0 0.0
2018-Jul-13 08:59N 01°12' E 103°41'0 0.0
2018-Jul-13 08:29N 01°12' E 103°41'0 0.1
2018-Jul-13 07:59N 01°12' E 103°41'3 6.7
2018-Jul-13 07:31N 01°14' E 103°39'2 4.1
2018-Jul-13 07:00N 01°17' E 103°40'0 0.1
2018-Jul-13 06:30N 01°16' E 103°40'0 0.0
2018-Jul-13 05:57N 01°16' E 103°40'0 0.0
2018-Jul-13 05:30N 01°16' E 103°40'0 0.0
2018-Jul-13 04:57N 01°16' E 103°40'0 0.0
2018-Jul-13 04:27N 01°16' E 103°40'0 0.0
2018-Jul-13 03:57N 01°16' E 103°40'0 0.0
2018-Jul-13 03:30N 01°16' E 103°40'0 0.0
2018-Jul-13 02:57N 01°16' E 103°40'0 0.0
2018-Jul-13 02:13N 01°16' E 103°40'0 0.0
2018-Jul-13 01:54N 01°16' E 103°40'0 0.0
2018-Jul-13 01:30N 01°16' E 103°40'0 0.0
2018-Jul-13 00:54N 01°16' E 103°40'0 0.0
2018-Jul-13 00:23N 01°16' E 103°40'0 0.0
2018-Jul-12 23:58N 01°16' E 103°40'0 0.0
2018-Jul-12 23:29N 01°16' E 103°40'0 0.0
2018-Jul-12 22:56N 01°16' E 103°40'0 0.0
2018-Jul-12 22:26N 01°16' E 103°40'0 0.0
2018-Jul-12 21:59N 01°16' E 103°40'0 0.0
2018-Jul-12 21:29N 01°16' E 103°40'0 0.0
2018-Jul-12 20:59N 01°16' E 103°40'0 0.0
2018-Jul-12 20:29N 01°16' E 103°40'0 0.0
2018-Jul-12 19:59N 01°16' E 103°40'0 0.0
2018-Jul-12 19:25N 01°16' E 103°40'0 0.0
2018-Jul-12 18:53N 01°16' E 103°40'0 0.0
2018-Jul-12 18:29N 01°16' E 103°40'0 0.0
2018-Jul-12 17:53N 01°16' E 103°40'0 0.0
2018-Jul-12 17:23N 01°16' E 103°40'0 0.0
2018-Jul-12 16:58N 01°16' E 103°40'0 0.0
2018-Jul-12 16:28N 01°16' E 103°40'0 0.0
2018-Jul-12 15:59N 01°16' E 103°40'0 0.0
2018-Jul-12 15:29N 01°16' E 103°40'0 0.0
2018-Jul-12 14:50N 01°16' E 103°40'0 0.0
2018-Jul-12 14:23N 01°16' E 103°40'0 0.0
2018-Jul-12 13:53N 01°16' E 103°40'0 0.0
2018-Jul-12 13:11N 01°16' E 103°40'0 0.0
2018-Jul-12 12:53N 01°16' E 103°40'0 0.0
2018-Jul-12 12:28N 01°16' E 103°40'0 0.0
2018-Jul-12 11:53N 01°16' E 103°40'0 0.0
2018-Jul-12 11:14N 01°16' E 103°40'0 0.0
2018-Jul-12 10:50N 01°16' E 103°40'0 0.0
2018-Jul-12 10:23N 01°16' E 103°40'0 0.0
2018-Jul-12 09:55N 01°16' E 103°40'0 0.0
2018-Jul-12 09:05N 01°16' E 103°40'0 0.0
2018-Jul-12 08:53N 01°16' E 103°40'0 0.0
2018-Jul-12 08:29N 01°16' E 103°40'0 0.0
2018-Jul-12 07:45N 01°16' E 103°40'0 0.0
2018-Jul-12 07:30N 01°16' E 103°40'0 0.5
2018-Jul-12 07:00N 01°17' E 103°40'1 2.9
2018-Jul-12 06:30N 01°15' E 103°39'4 7.1
2018-Jul-12 06:00N 01°12' E 103°40'0 0.0
2018-Jul-12 05:29N 01°12' E 103°40'0 0.1
2018-Jul-12 04:59N 01°12' E 103°41'0 0.1
2018-Jul-12 04:29N 01°12' E 103°41'0 0.0
2018-Jul-12 03:56N 01°12' E 103°41'0 0.0
2018-Jul-12 03:29N 01°12' E 103°41'0 0.0
2018-Jul-12 02:59N 01°12' E 103°41'0 0.0
2018-Jul-12 02:28N 01°12' E 103°41'0 0.1
2018-Jul-12 01:53N 01°12' E 103°41'0 0.0
2018-Jul-12 01:29N 01°12' E 103°41'0 0.0
2018-Jul-12 00:56N 01°12' E 103°41'0 0.1
2018-Jul-12 00:26N 01°12' E 103°41'0 0.1
2018-Jul-11 23:59N 01°12' E 103°41'0 0.0
2018-Jul-11 23:29N 01°12' E 103°41'0 0.0
2018-Jul-11 22:59N 01°12' E 103°41'0 0.0
2018-Jul-11 21:53N 01°12' E 103°41'0 0.0
2018-Jul-11 21:25N 01°12' E 103°41'0 0.0
2018-Jul-11 20:55N 01°12' E 103°41'0 0.0
2018-Jul-11 20:23N 01°12' E 103°41'0 0.1
2018-Jul-11 19:57N 01°12' E 103°41'1 3.1
2018-Jul-11 19:30N 01°12' E 103°39'4 7.1
2018-Jul-11 19:00N 01°12' E 103°36'4 7.0
2018-Jul-11 18:28N 01°11' E 103°33'4 7.9
2018-Jul-11 18:00N 01°09' E 103°29'3 5.8
2018-Jul-11 17:30N 01°11' E 103°27'4 7.6
2018-Jul-11 16:59N 01°13' E 103°23'6 7.9
2018-Jul-11 16:14N 01°17' E 103°19'310.3
2018-Jul-11 15:58N 01°18' E 103°17'510.3
2018-Jul-11 15:28N 01°22' E 103°13'  
Track history (hours):
 
Tides and Currents Weather Stations Pressure Air Temp Water Temp Dewpoint Dewpoint Depression Visibility Wind Speed Wind Dir Waves Ship Positions

Sc Hercules

Last reported at 2018-Jul-13 18:40 UTC. Time now 2018-Jul-19 09:51 UTC.
Position N 01°26' E 103°12'.

Length 183 m; draft 9.5 m.

Type: Tanker. MMSI: 477002100.

Date/timePositionNaut miles runAvg speedWind from/ knotsBaromVisibWave heightAir tempDewpointWater temp
2018-Jul-13 18:40N 01°26' E 103°12'613.5
2018-Jul-13 18:15N 01°22' E 103°16'413.3
2018-Jul-13 17:56N 01°19' E 103°20'512.7
2018-Jul-13 17:31N 01°16' E 103°24'611.9
2018-Jul-13 16:59N 01°14' E 103°29'511.2
2018-Jul-13 16:30N 01°12' E 103°35'510.6
2018-Jul-13 15:59N 01°11' E 103°40'1 2.8
2018-Jul-13 15:29N 01°12' E 103°41'0 0.0
2018-Jul-13 14:59N 01°12' E 103°41'0 0.1
2018-Jul-13 13:59N 01°12' E 103°41'0 0.1
2018-Jul-13 13:29N 01°12' E 103°41'0 0.0
2018-Jul-13 12:59N 01°12' E 103°41'0 0.0
2018-Jul-13 12:29N 01°12' E 103°41'0 0.0
2018-Jul-13 11:59N 01°12' E 103°41'0 0.0
2018-Jul-13 11:29N 01°12' E 103°41'0 0.0
2018-Jul-13 10:59N 01°12' E 103°41'0 0.0
2018-Jul-13 10:29N 01°12' E 103°41'0 0.0
2018-Jul-13 09:59N 01°12' E 103°41'0 0.0
2018-Jul-13 09:29N 01°12' E 103°41'0 0.0
2018-Jul-13 08:59N 01°12' E 103°41'0 0.0
2018-Jul-13 08:29N 01°12' E 103°41'0 0.1
2018-Jul-13 07:59N 01°12' E 103°41'3 6.7
2018-Jul-13 07:31N 01°14' E 103°39'2 4.1
2018-Jul-13 07:00N 01°17' E 103°40'0 0.1
2018-Jul-13 06:30N 01°16' E 103°40'0 0.0
2018-Jul-13 05:57N 01°16' E 103°40'0 0.0
2018-Jul-13 05:30N 01°16' E 103°40'0 0.0
2018-Jul-13 04:57N 01°16' E 103°40'0 0.0
2018-Jul-13 04:27N 01°16' E 103°40'0 0.0
2018-Jul-13 03:57N 01°16' E 103°40'0 0.0
2018-Jul-13 03:30N 01°16' E 103°40'0 0.0
2018-Jul-13 02:57N 01°16' E 103°40'0 0.0
2018-Jul-13 02:13N 01°16' E 103°40'0 0.0
2018-Jul-13 01:54N 01°16' E 103°40'0 0.0
2018-Jul-13 01:30N 01°16' E 103°40'0 0.0
2018-Jul-13 00:54N 01°16' E 103°40'0 0.0
2018-Jul-13 00:23N 01°16' E 103°40'0 0.0
2018-Jul-12 23:58N 01°16' E 103°40'0 0.0
2018-Jul-12 23:29N 01°16' E 103°40'0 0.0
2018-Jul-12 22:56N 01°16' E 103°40'0 0.0
2018-Jul-12 22:26N 01°16' E 103°40'0 0.0
2018-Jul-12 21:59N 01°16' E 103°40'0 0.0
2018-Jul-12 21:29N 01°16' E 103°40'0 0.0
2018-Jul-12 20:59N 01°16' E 103°40'0 0.0
2018-Jul-12 20:29N 01°16' E 103°40'0 0.0
2018-Jul-12 19:59N 01°16' E 103°40'0 0.0
2018-Jul-12 19:25N 01°16' E 103°40'0 0.0
2018-Jul-12 18:53N 01°16' E 103°40'0 0.0
2018-Jul-12 18:29N 01°16' E 103°40'0 0.0
2018-Jul-12 17:53N 01°16' E 103°40'0 0.0
2018-Jul-12 17:23N 01°16' E 103°40'0 0.0
2018-Jul-12 16:58N 01°16' E 103°40'0 0.0
2018-Jul-12 16:28N 01°16' E 103°40'0 0.0
2018-Jul-12 15:59N 01°16' E 103°40'0 0.0
2018-Jul-12 15:29N 01°16' E 103°40'0 0.0
2018-Jul-12 14:50N 01°16' E 103°40'0 0.0
2018-Jul-12 14:23N 01°16' E 103°40'0 0.0
2018-Jul-12 13:53N 01°16' E 103°40'0 0.0
2018-Jul-12 13:11N 01°16' E 103°40'0 0.0
2018-Jul-12 12:53N 01°16' E 103°40'0 0.0
2018-Jul-12 12:28N 01°16' E 103°40'0 0.0
2018-Jul-12 11:53N 01°16' E 103°40'0 0.0
2018-Jul-12 11:14N 01°16' E 103°40'0 0.0
2018-Jul-12 10:50N 01°16' E 103°40'0 0.0
2018-Jul-12 10:23N 01°16' E 103°40'0 0.0
2018-Jul-12 09:55N 01°16' E 103°40'0 0.0
2018-Jul-12 09:05N 01°16' E 103°40'0 0.0
2018-Jul-12 08:53N 01°16' E 103°40'0 0.0
2018-Jul-12 08:29N 01°16' E 103°40'0 0.0
2018-Jul-12 07:45N 01°16' E 103°40'0 0.0
2018-Jul-12 07:30N 01°16' E 103°40'0 0.5
2018-Jul-12 07:00N 01°17' E 103°40'1 2.9
2018-Jul-12 06:30N 01°15' E 103°39'4 7.1
2018-Jul-12 06:00N 01°12' E 103°40'0 0.0
2018-Jul-12 05:29N 01°12' E 103°40'0 0.1
2018-Jul-12 04:59N 01°12' E 103°41'0 0.1
2018-Jul-12 04:29N 01°12' E 103°41'0 0.0
2018-Jul-12 03:56N 01°12' E 103°41'0 0.0
2018-Jul-12 03:29N 01°12' E 103°41'0 0.0
2018-Jul-12 02:59N 01°12' E 103°41'0 0.0
2018-Jul-12 02:28N 01°12' E 103°41'0 0.1
2018-Jul-12 01:53N 01°12' E 103°41'0 0.0
2018-Jul-12 01:29N 01°12' E 103°41'0 0.0
2018-Jul-12 00:56N 01°12' E 103°41'0 0.1
2018-Jul-12 00:26N 01°12' E 103°41'0 0.1
2018-Jul-11 23:59N 01°12' E 103°41'0 0.0
2018-Jul-11 23:29N 01°12' E 103°41'0 0.0
2018-Jul-11 22:59N 01°12' E 103°41'0 0.0
2018-Jul-11 21:53N 01°12' E 103°41'0 0.0
2018-Jul-11 21:25N 01°12' E 103°41'0 0.0
2018-Jul-11 20:55N 01°12' E 103°41'0 0.0
2018-Jul-11 20:23N 01°12' E 103°41'0 0.1
2018-Jul-11 19:57N 01°12' E 103°41'1 3.1
2018-Jul-11 19:30N 01°12' E 103°39'4 7.1
2018-Jul-11 19:00N 01°12' E 103°36'4 7.0
2018-Jul-11 18:28N 01°11' E 103°33'4 7.9
2018-Jul-11 18:00N 01°09' E 103°29'3 5.8
2018-Jul-11 17:30N 01°11' E 103°27'4 7.6
2018-Jul-11 16:59N 01°13' E 103°23'6 7.9
2018-Jul-11 16:14N 01°17' E 103°19'310.3
2018-Jul-11 15:58N 01°18' E 103°17'510.3
2018-Jul-11 15:28N 01°22' E 103°13'  

Dump ship's entire track history